sensor_id;sensor_type;location;lat;lon;timestamp;pressure;altitude;pressure_sealevel;temperature;humidity
12215;BME280;6170;42.206;24.142;2023-04-09T00:00:40;99188.91;;;9.21;86.50
12215;BME280;6170;42.206;24.142;2023-04-09T00:03:07;99218.06;;;9.30;87.76
12215;BME280;6170;42.206;24.142;2023-04-09T00:05:39;99195.94;;;9.36;86.55
12215;BME280;6170;42.206;24.142;2023-04-09T00:08:06;99234.69;;;9.40;87.43
12215;BME280;6170;42.206;24.142;2023-04-09T00:10:33;99187.81;;;9.00;87.47
12215;BME280;6170;42.206;24.142;2023-04-09T00:13:00;99200.44;;;9.07;87.59
12215;BME280;6170;42.206;24.142;2023-04-09T00:15:27;99226.47;;;9.42;87.78
12215;BME280;6170;42.206;24.142;2023-04-09T00:17:54;99203.59;;;9.39;87.14
12215;BME280;6170;42.206;24.142;2023-04-09T00:20:22;99228.31;;;9.56;87.43
12215;BME280;6170;42.206;24.142;2023-04-09T00:22:50;99193.44;;;9.35;87.28
12215;BME280;6170;42.206;24.142;2023-04-09T00:25:17;99234.41;;;9.35;87.72
12215;BME280;6170;42.206;24.142;2023-04-09T00:27:44;99205.63;;;9.23;87.59
12215;BME280;6170;42.206;24.142;2023-04-09T00:30:12;99203.03;;;9.15;88.06
12215;BME280;6170;42.206;24.142;2023-04-09T00:32:39;99206.13;;;9.03;88.55
12215;BME280;6170;42.206;24.142;2023-04-09T00:35:06;99201.16;;;9.00;88.71
12215;BME280;6170;42.206;24.142;2023-04-09T00:37:34;99242.69;;;9.40;88.63
12215;BME280;6170;42.206;24.142;2023-04-09T00:40:03;99234.75;;;9.18;89.02
12215;BME280;6170;42.206;24.142;2023-04-09T00:42:31;99210.19;;;8.99;89.31
12215;BME280;6170;42.206;24.142;2023-04-09T00:44:58;99201.53;;;8.97;89.14
12215;BME280;6170;42.206;24.142;2023-04-09T00:47:25;99241.84;;;9.11;90.02
12215;BME280;6170;42.206;24.142;2023-04-09T00:49:54;99237.88;;;9.07;89.68
12215;BME280;6170;42.206;24.142;2023-04-09T00:52:21;99213.41;;;8.80;90.38
12215;BME280;6170;42.206;24.142;2023-04-09T00:54:48;99213.94;;;8.90;89.63
12215;BME280;6170;42.206;24.142;2023-04-09T00:57:18;99218.91;;;8.79;90.43
12215;BME280;6170;42.206;24.142;2023-04-09T00:59:45;99248.44;;;9.00;90.95
12215;BME280;6170;42.206;24.142;2023-04-09T01:02:12;99207.09;;;8.73;90.79
12215;BME280;6170;42.206;24.142;2023-04-09T01:04:41;99202.50;;;8.67;91.05
12215;BME280;6170;42.206;24.142;2023-04-09T01:07:12;99215.78;;;8.75;91.82
12215;BME280;6170;42.206;24.142;2023-04-09T01:09:42;99216.38;;;8.63;91.63
12215;BME280;6170;42.206;24.142;2023-04-09T01:12:20;99251.28;;;8.98;91.30
12215;BME280;6170;42.206;24.142;2023-04-09T01:14:57;99214.59;;;8.55;90.71
12215;BME280;6170;42.206;24.142;2023-04-09T01:17:30;99256.69;;;8.76;91.48
12215;BME280;6170;42.206;24.142;2023-04-09T01:20:02;99230.81;;;8.53;91.83
12215;BME280;6170;42.206;24.142;2023-04-09T01:22:39;99254.56;;;8.71;91.61
12215;BME280;6170;42.206;24.142;2023-04-09T01:25:21;99224.41;;;8.40;92.43
12215;BME280;6170;42.206;24.142;2023-04-09T01:28:16;99262.13;;;8.60;91.56
12215;BME280;6170;42.206;24.142;2023-04-09T01:30:47;99226.94;;;8.33;92.00
12215;BME280;6170;42.206;24.142;2023-04-09T01:33:16;99255.53;;;8.47;91.98
12215;BME280;6170;42.206;24.142;2023-04-09T01:35:45;99225.94;;;8.34;91.67
12215;BME280;6170;42.206;24.142;2023-04-09T01:38:13;99228.28;;;8.29;91.63
12215;BME280;6170;42.206;24.142;2023-04-09T01:40:42;99258.81;;;8.57;91.78
12215;BME280;6170;42.206;24.142;2023-04-09T01:43:10;99230.09;;;8.29;91.33
12215;BME280;6170;42.206;24.142;2023-04-09T01:45:39;99228.75;;;8.33;91.57
12215;BME280;6170;42.206;24.142;2023-04-09T01:48:07;99233.13;;;8.26;91.56
12215;BME280;6170;42.206;24.142;2023-04-09T01:50:35;99266.06;;;8.49;91.70
12215;BME280;6170;42.206;24.142;2023-04-09T01:53:03;99243.88;;;8.18;91.04
12215;BME280;6170;42.206;24.142;2023-04-09T01:55:30;99258.03;;;8.18;92.31
12215;BME280;6170;42.206;24.142;2023-04-09T01:57:57;99251.56;;;8.12;91.38
12215;BME280;6170;42.206;24.142;2023-04-09T02:00:30;99279.03;;;8.21;91.54
12215;BME280;6170;42.206;24.142;2023-04-09T02:03:05;99242.81;;;7.96;91.41
12215;BME280;6170;42.206;24.142;2023-04-09T02:05:39;99250.06;;;8.10;91.98
12215;BME280;6170;42.206;24.142;2023-04-09T02:08:09;99281.03;;;8.27;91.49
12215;BME280;6170;42.206;24.142;2023-04-09T02:10:39;99243.75;;;8.03;91.50
12215;BME280;6170;42.206;24.142;2023-04-09T02:13:08;99295.66;;;8.39;91.03
12215;BME280;6170;42.206;24.142;2023-04-09T02:15:39;99256.75;;;8.06;91.02
12215;BME280;6170;42.206;24.142;2023-04-09T02:18:21;99247.09;;;8.05;90.75
12215;BME280;6170;42.206;24.142;2023-04-09T02:20:48;99238.94;;;7.98;91.82
12215;BME280;6170;42.206;24.142;2023-04-09T02:23:16;99282.34;;;8.31;91.61
12215;BME280;6170;42.206;24.142;2023-04-09T02:25:43;99234.94;;;8.02;90.63
12215;BME280;6170;42.206;24.142;2023-04-09T02:28:10;99286.78;;;8.08;92.19
12215;BME280;6170;42.206;24.142;2023-04-09T02:30:37;99262.72;;;7.77;92.34
12215;BME280;6170;42.206;24.142;2023-04-09T02:33:04;99236.91;;;7.78;92.42
12215;BME280;6170;42.206;24.142;2023-04-09T02:35:33;99245.22;;;7.83;93.02
12215;BME280;6170;42.206;24.142;2023-04-09T02:38:00;99252.41;;;7.66;93.29
12215;BME280;6170;42.206;24.142;2023-04-09T02:40:28;99250.28;;;7.61;93.81
12215;BME280;6170;42.206;24.142;2023-04-09T02:42:56;99236.19;;;7.84;92.97
12215;BME280;6170;42.206;24.142;2023-04-09T02:45:23;99251.47;;;7.98;92.57
12215;BME280;6170;42.206;24.142;2023-04-09T02:47:50;99248.66;;;7.91;92.50
12215;BME280;6170;42.206;24.142;2023-04-09T02:50:18;99237.72;;;7.78;92.14
12215;BME280;6170;42.206;24.142;2023-04-09T02:52:46;99279.78;;;8.07;93.07
12215;BME280;6170;42.206;24.142;2023-04-09T02:55:14;99248.28;;;7.63;92.85
12215;BME280;6170;42.206;24.142;2023-04-09T02:57:41;99281.53;;;7.92;92.96
12215;BME280;6170;42.206;24.142;2023-04-09T03:00:09;99249.63;;;7.59;93.61
12215;BME280;6170;42.206;24.142;2023-04-09T03:02:36;99250.28;;;7.61;93.23
12215;BME280;6170;42.206;24.142;2023-04-09T03:05:04;99280.03;;;7.89;93.25
12215;BME280;6170;42.206;24.142;2023-04-09T03:07:31;99254.69;;;7.85;92.23
12215;BME280;6170;42.206;24.142;2023-04-09T03:09:59;99258.34;;;7.84;92.34
12215;BME280;6170;42.206;24.142;2023-04-09T03:12:26;99255.09;;;7.74;92.40
12215;BME280;6170;42.206;24.142;2023-04-09T03:14:53;99254.84;;;7.84;92.38
12215;BME280;6170;42.206;24.142;2023-04-09T03:17:21;99258.84;;;7.88;91.97
12215;BME280;6170;42.206;24.142;2023-04-09T03:19:50;99248.34;;;7.47;93.25
12215;BME280;6170;42.206;24.142;2023-04-09T03:22:17;99301.59;;;7.72;93.48
12215;BME280;6170;42.206;24.142;2023-04-09T03:24:44;99256.47;;;7.54;93.66
12215;BME280;6170;42.206;24.142;2023-04-09T03:27:12;99298.41;;;7.76;93.05
12215;BME280;6170;42.206;24.142;2023-04-09T03:29:39;99260.75;;;7.71;93.09
12215;BME280;6170;42.206;24.142;2023-04-09T03:32:06;99262.94;;;7.67;92.88
12215;BME280;6170;42.206;24.142;2023-04-09T03:34:33;99305.63;;;8.06;92.85
12215;BME280;6170;42.206;24.142;2023-04-09T03:37:00;99262.84;;;7.84;92.17
12215;BME280;6170;42.206;24.142;2023-04-09T03:39:27;99301.41;;;7.81;92.68
12215;BME280;6170;42.206;24.142;2023-04-09T03:41:55;99276.66;;;7.56;93.12
12215;BME280;6170;42.206;24.142;2023-04-09T03:44:24;99296.81;;;7.98;92.96
12215;BME280;6170;42.206;24.142;2023-04-09T03:46:51;99269.66;;;7.94;91.55
12215;BME280;6170;42.206;24.142;2023-04-09T03:49:18;99269.50;;;7.88;92.20
12215;BME280;6170;42.206;24.142;2023-04-09T03:51:45;99316.34;;;8.37;91.41
12215;BME280;6170;42.206;24.142;2023-04-09T03:54:12;99275.66;;;8.35;90.09
12215;BME280;6170;42.206;24.142;2023-04-09T03:56:39;99281.56;;;8.14;90.71
12215;BME280;6170;42.206;24.142;2023-04-09T03:59:06;99280.56;;;8.16;90.75
12215;BME280;6170;42.206;24.142;2023-04-09T04:01:35;99288.88;;;8.21;90.43
12215;BME280;6170;42.206;24.142;2023-04-09T04:04:02;99282.53;;;8.22;90.37
12215;BME280;6170;42.206;24.142;2023-04-09T04:06:32;99291.19;;;8.24;90.82
12215;BME280;6170;42.206;24.142;2023-04-09T04:08:59;99291.25;;;8.16;90.34
12215;BME280;6170;42.206;24.142;2023-04-09T04:11:26;99288.19;;;7.96;89.84
12215;BME280;6170;42.206;24.142;2023-04-09T04:13:54;99321.47;;;8.08;90.21
12215;BME280;6170;42.206;24.142;2023-04-09T04:16:21;99327.53;;;7.94;91.21
12215;BME280;6170;42.206;24.142;2023-04-09T04:18:50;99289.47;;;7.53;91.71
12215;BME280;6170;42.206;24.142;2023-04-09T04:21:17;99321.75;;;7.66;92.19
12215;BME280;6170;42.206;24.142;2023-04-09T04:23:44;99287.31;;;7.48;93.13
12215;BME280;6170;42.206;24.142;2023-04-09T04:26:12;99329.44;;;7.69;93.01
12215;BME280;6170;42.206;24.142;2023-04-09T04:28:39;99300.81;;;7.55;94.06
12215;BME280;6170;42.206;24.142;2023-04-09T04:31:07;99295.59;;;7.61;92.74
12215;BME280;6170;42.206;24.142;2023-04-09T04:33:35;99324.13;;;7.69;92.58
12215;BME280;6170;42.206;24.142;2023-04-09T04:36:05;99304.97;;;7.65;92.76
12215;BME280;6170;42.206;24.142;2023-04-09T04:38:32;99328.13;;;7.57;92.62
12215;BME280;6170;42.206;24.142;2023-04-09T04:41:00;99307.47;;;7.51;92.54
12215;BME280;6170;42.206;24.142;2023-04-09T04:43:27;99310.06;;;7.75;92.01
12215;BME280;6170;42.206;24.142;2023-04-09T04:45:54;99285.75;;;7.78;91.54
12215;BME280;6170;42.206;24.142;2023-04-09T04:48:22;99296.94;;;7.57;91.29
12215;BME280;6170;42.206;24.142;2023-04-09T04:50:54;99304.41;;;7.78;91.71
12215;BME280;6170;42.206;24.142;2023-04-09T04:53:23;99337.75;;;7.82;91.70
12215;BME280;6170;42.206;24.142;2023-04-09T04:55:50;99302.97;;;7.59;92.27
12215;BME280;6170;42.206;24.142;2023-04-09T04:58:17;99336.13;;;7.65;92.43
12215;BME280;6170;42.206;24.142;2023-04-09T05:00:45;99302.63;;;7.62;92.83
12215;BME280;6170;42.206;24.142;2023-04-09T05:03:12;99333.72;;;7.86;92.41
12215;BME280;6170;42.206;24.142;2023-04-09T05:05:40;99295.34;;;7.95;91.87
12215;BME280;6170;42.206;24.142;2023-04-09T05:08:07;99334.78;;;8.16;90.80
12215;BME280;6170;42.206;24.142;2023-04-09T05:10:36;99339.75;;;8.19;91.54
12215;BME280;6170;42.206;24.142;2023-04-09T05:13:03;99298.38;;;7.84;90.32
12215;BME280;6170;42.206;24.142;2023-04-09T05:15:30;99294.19;;;7.90;90.96
12215;BME280;6170;42.206;24.142;2023-04-09T05:17:57;99303.59;;;7.70;91.17
12215;BME280;6170;42.206;24.142;2023-04-09T05:20:26;99305.88;;;7.89;90.35
12215;BME280;6170;42.206;24.142;2023-04-09T05:22:53;99331.22;;;7.85;90.99
12215;BME280;6170;42.206;24.142;2023-04-09T05:25:21;99345.41;;;7.85;90.24
12215;BME280;6170;42.206;24.142;2023-04-09T05:27:49;99344.44;;;7.78;91.19
12215;BME280;6170;42.206;24.142;2023-04-09T05:30:16;99328.41;;;7.86;90.49
12215;BME280;6170;42.206;24.142;2023-04-09T05:32:44;99308.16;;;8.00;89.95
12215;BME280;6170;42.206;24.142;2023-04-09T05:35:11;99334.31;;;8.12;90.34
12215;BME280;6170;42.206;24.142;2023-04-09T05:37:38;99311.28;;;8.11;89.38
12215;BME280;6170;42.206;24.142;2023-04-09T05:40:06;99313.81;;;8.05;88.47
12215;BME280;6170;42.206;24.142;2023-04-09T05:42:34;99342.94;;;8.31;89.05
12215;BME280;6170;42.206;24.142;2023-04-09T05:45:03;99301.22;;;7.83;88.65
12215;BME280;6170;42.206;24.142;2023-04-09T05:47:30;99354.72;;;8.44;88.54
12215;BME280;6170;42.206;24.142;2023-04-09T05:49:58;99314.56;;;8.30;88.72
12215;BME280;6170;42.206;24.142;2023-04-09T05:52:25;99320.84;;;8.37;87.59
12215;BME280;6170;42.206;24.142;2023-04-09T05:54:53;99347.25;;;8.24;89.04
12215;BME280;6170;42.206;24.142;2023-04-09T05:57:20;99320.41;;;7.86;88.48
12215;BME280;6170;42.206;24.142;2023-04-09T05:59:47;99350.13;;;8.22;88.97
12215;BME280;6170;42.206;24.142;2023-04-09T06:02:16;99349.75;;;8.25;87.95
12215;BME280;6170;42.206;24.142;2023-04-09T06:04:43;99322.09;;;8.18;88.37
12215;BME280;6170;42.206;24.142;2023-04-09T06:07:10;99364.63;;;8.20;88.60
12215;BME280;6170;42.206;24.142;2023-04-09T06:09:37;99334.16;;;8.06;88.54
12215;BME280;6170;42.206;24.142;2023-04-09T06:12:05;99334.53;;;7.95;88.73
12215;BME280;6170;42.206;24.142;2023-04-09T06:14:32;99334.88;;;7.84;88.96
12215;BME280;6170;42.206;24.142;2023-04-09T06:16:59;99370.06;;;7.95;89.50
12215;BME280;6170;42.206;24.142;2023-04-09T06:19:28;99368.66;;;8.16;89.10
12215;BME280;6170;42.206;24.142;2023-04-09T06:21:55;99329.13;;;8.11;87.93
12215;BME280;6170;42.206;24.142;2023-04-09T06:24:22;99332.16;;;8.08;88.20
12215;BME280;6170;42.206;24.142;2023-04-09T06:26:50;99323.47;;;8.14;87.58
12215;BME280;6170;42.206;24.142;2023-04-09T06:29:17;99329.59;;;8.14;88.73
12215;BME280;6170;42.206;24.142;2023-04-09T06:31:44;99360.91;;;8.37;88.00
12215;BME280;6170;42.206;24.142;2023-04-09T06:34:11;99360.28;;;8.27;88.35
12215;BME280;6170;42.206;24.142;2023-04-09T06:36:40;99332.72;;;8.34;88.57
12215;BME280;6170;42.206;24.142;2023-04-09T06:39:08;99364.19;;;8.08;88.25
12215;BME280;6170;42.206;24.142;2023-04-09T06:41:35;99341.72;;;7.86;89.14
12215;BME280;6170;42.206;24.142;2023-04-09T06:44:03;99336.22;;;7.96;88.18
12215;BME280;6170;42.206;24.142;2023-04-09T06:46:30;99340.91;;;8.33;88.40
12215;BME280;6170;42.206;24.142;2023-04-09T06:48:57;99338.50;;;8.46;87.10
12215;BME280;6170;42.206;24.142;2023-04-09T06:51:24;99378.06;;;8.42;87.26
12215;BME280;6170;42.206;24.142;2023-04-09T06:53:53;99343.19;;;8.44;87.20
12215;BME280;6170;42.206;24.142;2023-04-09T06:56:20;99341.06;;;8.39;88.38
12215;BME280;6170;42.206;24.142;2023-04-09T06:58:48;99371.84;;;8.81;87.59
12215;BME280;6170;42.206;24.142;2023-04-09T07:01:15;99339.44;;;8.22;86.91
12215;BME280;6170;42.206;24.142;2023-04-09T07:03:43;99367.50;;;8.57;87.82
12215;BME280;6170;42.206;24.142;2023-04-09T07:06:10;99342.09;;;8.22;87.42
12215;BME280;6170;42.206;24.142;2023-04-09T07:08:37;99331.59;;;7.74;89.15
12215;BME280;6170;42.206;24.142;2023-04-09T07:11:06;99339.81;;;8.11;88.94
12215;BME280;6170;42.206;24.142;2023-04-09T07:13:33;99379.59;;;8.29;90.43
12215;BME280;6170;42.206;24.142;2023-04-09T07:16:00;99344.41;;;8.25;90.11
12215;BME280;6170;42.206;24.142;2023-04-09T07:18:27;99384.72;;;8.46;89.70
12215;BME280;6170;42.206;24.142;2023-04-09T07:20:55;99350.59;;;8.34;89.63
12215;BME280;6170;42.206;24.142;2023-04-09T07:23:22;99358.25;;;8.37;88.46
12215;BME280;6170;42.206;24.142;2023-04-09T07:25:49;99358.25;;;8.37;90.13
12215;BME280;6170;42.206;24.142;2023-04-09T07:28:18;99353.09;;;8.27;89.18
12215;BME280;6170;42.206;24.142;2023-04-09T07:30:45;99363.78;;;8.19;89.66
12215;BME280;6170;42.206;24.142;2023-04-09T07:33:12;99364.84;;;8.02;90.45
12215;BME280;6170;42.206;24.142;2023-04-09T07:35:40;99362.34;;;8.08;90.63
12215;BME280;6170;42.206;24.142;2023-04-09T07:38:07;99364.34;;;8.06;91.47
12215;BME280;6170;42.206;24.142;2023-04-09T07:40:34;99371.00;;;8.10;90.19
12215;BME280;6170;42.206;24.142;2023-04-09T07:43:02;99397.19;;;8.62;90.08
12215;BME280;6170;42.206;24.142;2023-04-09T07:45:31;99361.91;;;8.28;89.85
12215;BME280;6170;42.206;24.142;2023-04-09T07:47:58;99384.94;;;8.29;90.68
12215;BME280;6170;42.206;24.142;2023-04-09T07:50:25;99394.66;;;8.30;91.09
12215;BME280;6170;42.206;24.142;2023-04-09T07:52:52;99368.66;;;8.16;90.53
12215;BME280;6170;42.206;24.142;2023-04-09T07:55:19;99396.81;;;8.34;91.48
12215;BME280;6170;42.206;24.142;2023-04-09T07:57:47;99403.31;;;8.71;91.30
12215;BME280;6170;42.206;24.142;2023-04-09T08:00:16;99365.53;;;9.05;88.69
12215;BME280;6170;42.206;24.142;2023-04-09T08:02:45;99367.78;;;8.93;88.35
12215;BME280;6170;42.206;24.142;2023-04-09T08:05:12;99358.78;;;8.86;88.15
12215;BME280;6170;42.206;24.142;2023-04-09T08:07:39;99375.50;;;9.33;88.67
12215;BME280;6170;42.206;24.142;2023-04-09T08:10:07;99373.41;;;9.21;87.43
12215;BME280;6170;42.206;24.142;2023-04-09T08:12:39;99413.59;;;9.73;87.21
12215;BME280;6170;42.206;24.142;2023-04-09T08:15:06;99369.47;;;9.54;86.08
12215;BME280;6170;42.206;24.142;2023-04-09T08:17:33;99405.38;;;9.74;85.64
12215;BME280;6170;42.206;24.142;2023-04-09T08:20:03;99395.41;;;9.83;86.05
12215;BME280;6170;42.206;24.142;2023-04-09T08:22:30;99365.44;;;9.87;86.38
12215;BME280;6170;42.206;24.142;2023-04-09T08:24:59;99390.88;;;10.21;86.38
12215;BME280;6170;42.206;24.142;2023-04-09T08:27:26;99361.59;;;10.19;84.79
12215;BME280;6170;42.206;24.142;2023-04-09T08:29:53;99355.91;;;10.58;84.48
12215;BME280;6170;42.206;24.142;2023-04-09T08:32:20;99348.94;;;10.43;84.17
12215;BME280;6170;42.206;24.142;2023-04-09T08:34:47;99355.59;;;10.68;82.67
12215;BME280;6170;42.206;24.142;2023-04-09T08:37:15;99383.25;;;10.54;82.92
12215;BME280;6170;42.206;24.142;2023-04-09T08:39:42;99361.75;;;10.03;82.83
12215;BME280;6170;42.206;24.142;2023-04-09T08:42:10;99346.63;;;9.81;83.71
12215;BME280;6170;42.206;24.142;2023-04-09T08:44:38;99354.28;;;10.28;83.69
12215;BME280;6170;42.206;24.142;2023-04-09T08:47:07;99343.09;;;9.51;83.51
12215;BME280;6170;42.206;24.142;2023-04-09T08:49:36;99381.88;;;10.14;83.02
12215;BME280;6170;42.206;24.142;2023-04-09T08:52:04;99333.78;;;10.35;82.83
12215;BME280;6170;42.206;24.142;2023-04-09T08:54:33;99337.94;;;10.08;82.36
12215;BME280;6170;42.206;24.142;2023-04-09T08:57:04;99376.97;;;10.97;82.29
12215;BME280;6170;42.206;24.142;2023-04-09T08:59:31;99344.28;;;10.51;81.81
12215;BME280;6170;42.206;24.142;2023-04-09T09:02:08;99368.53;;;11.00;81.63
12215;BME280;6170;42.206;24.142;2023-04-09T09:04:45;99334.00;;;10.55;79.56
12215;BME280;6170;42.206;24.142;2023-04-09T09:07:12;99325.25;;;11.03;79.18
12215;BME280;6170;42.206;24.142;2023-04-09T09:09:55;99327.16;;;11.31;78.71
12215;BME280;6170;42.206;24.142;2023-04-09T09:12:34;99320.84;;;11.17;79.57
12215;BME280;6170;42.206;24.142;2023-04-09T09:15:03;99329.00;;;11.30;79.45
12215;BME280;6170;42.206;24.142;2023-04-09T09:17:30;99346.88;;;11.44;79.39
12215;BME280;6170;42.206;24.142;2023-04-09T09:19:57;99324.97;;;11.96;78.59
12215;BME280;6170;42.206;24.142;2023-04-09T09:22:24;99314.41;;;11.39;78.40
12215;BME280;6170;42.206;24.142;2023-04-09T09:24:53;99323.47;;;11.59;78.60
12215;BME280;6170;42.206;24.142;2023-04-09T09:27:33;99323.84;;;11.84;76.13
12215;BME280;6170;42.206;24.142;2023-04-09T09:30:01;99324.16;;;11.47;76.05
12215;BME280;6170;42.206;24.142;2023-04-09T09:32:30;99320.91;;;11.73;79.22
12215;BME280;6170;42.206;24.142;2023-04-09T09:35:00;99316.88;;;11.62;78.49
12215;BME280;6170;42.206;24.142;2023-04-09T09:37:28;99306.03;;;11.49;76.75
12215;BME280;6170;42.206;24.142;2023-04-09T09:39:57;99311.84;;;11.80;76.80
12215;BME280;6170;42.206;24.142;2023-04-09T09:42:25;99320.47;;;12.57;75.89
12215;BME280;6170;42.206;24.142;2023-04-09T09:44:53;99300.47;;;12.12;75.36
12215;BME280;6170;42.206;24.142;2023-04-09T09:47:21;99326.88;;;12.50;74.80
12215;BME280;6170;42.206;24.142;2023-04-09T09:49:50;99295.59;;;11.88;76.96
12215;BME280;6170;42.206;24.142;2023-04-09T09:52:24;99294.66;;;12.09;77.70
12215;BME280;6170;42.206;24.142;2023-04-09T09:54:51;99330.44;;;12.16;74.85
12215;BME280;6170;42.206;24.142;2023-04-09T09:57:21;99302.22;;;12.40;75.84
12215;BME280;6170;42.206;24.142;2023-04-09T09:59:53;99299.44;;;12.81;72.16
12215;BME280;6170;42.206;24.142;2023-04-09T10:02:22;99298.84;;;12.98;72.10
12215;BME280;6170;42.206;24.142;2023-04-09T10:04:51;99294.28;;;13.05;74.99
12215;BME280;6170;42.206;24.142;2023-04-09T10:07:18;99295.13;;;13.85;71.16
12215;BME280;6170;42.206;24.142;2023-04-09T10:09:49;99285.84;;;14.38;69.71
12215;BME280;6170;42.206;24.142;2023-04-09T10:12:19;99276.75;;;14.26;71.10
12215;BME280;6170;42.206;24.142;2023-04-09T10:14:50;99280.22;;;13.76;70.10
12215;BME280;6170;42.206;24.142;2023-04-09T10:17:18;99276.31;;;13.72;70.73
12215;BME280;6170;42.206;24.142;2023-04-09T10:20:00;99274.13;;;14.07;73.17
12215;BME280;6170;42.206;24.142;2023-04-09T10:22:31;99272.41;;;13.48;68.95
12215;BME280;6170;42.206;24.142;2023-04-09T10:24:59;99270.28;;;12.97;70.23
12215;BME280;6170;42.206;24.142;2023-04-09T10:27:28;99262.44;;;12.89;70.47
12215;BME280;6170;42.206;24.142;2023-04-09T10:29:55;99268.81;;;12.75;70.38
12215;BME280;6170;42.206;24.142;2023-04-09T10:32:24;99265.97;;;13.10;71.70
12215;BME280;6170;42.206;24.142;2023-04-09T10:34:55;99275.44;;;13.84;70.79
12215;BME280;6170;42.206;24.142;2023-04-09T10:37:25;99255.28;;;14.07;69.06
12215;BME280;6170;42.206;24.142;2023-04-09T10:39:53;99254.38;;;13.42;69.02
12215;BME280;6170;42.206;24.142;2023-04-09T10:42:22;99273.41;;;12.94;69.79
12215;BME280;6170;42.206;24.142;2023-04-09T10:45:05;99242.16;;;12.87;69.56
12215;BME280;6170;42.206;24.142;2023-04-09T10:47:34;99243.00;;;13.20;68.27
12215;BME280;6170;42.206;24.142;2023-04-09T10:50:16;99264.31;;;13.28;69.20
12215;BME280;6170;42.206;24.142;2023-04-09T10:52:43;99244.09;;;13.97;69.91
12215;BME280;6170;42.206;24.142;2023-04-09T10:55:29;99235.94;;;14.16;66.11
12215;BME280;6170;42.206;24.142;2023-04-09T10:57:56;99230.63;;;14.48;67.01
12215;BME280;6170;42.206;24.142;2023-04-09T11:00:24;99232.53;;;14.34;65.00
12215;BME280;6170;42.206;24.142;2023-04-09T11:03:13;99221.38;;;13.79;64.85
12215;BME280;6170;42.206;24.142;2023-04-09T11:05:46;99220.69;;;13.90;66.79
12215;BME280;6170;42.206;24.142;2023-04-09T11:08:15;99220.00;;;14.15;64.71
12215;BME280;6170;42.206;24.142;2023-04-09T11:10:44;99211.34;;;14.44;63.30
12215;BME280;6170;42.206;24.142;2023-04-09T11:13:12;99247.09;;;14.26;63.54
12215;BME280;6170;42.206;24.142;2023-04-09T11:15:42;99247.97;;;14.20;62.55
12215;BME280;6170;42.206;24.142;2023-04-09T11:18:13;99216.97;;;13.98;63.41
12215;BME280;6170;42.206;24.142;2023-04-09T11:20:40;99240.56;;;14.85;65.16
12215;BME280;6170;42.206;24.142;2023-04-09T11:23:07;99193.97;;;14.71;62.70
12215;BME280;6170;42.206;24.142;2023-04-09T11:25:36;99236.94;;;14.66;61.92
12215;BME280;6170;42.206;24.142;2023-04-09T11:28:03;99213.94;;;13.68;64.67
12215;BME280;6170;42.206;24.142;2023-04-09T11:30:31;99240.38;;;13.98;67.90
12215;BME280;6170;42.206;24.142;2023-04-09T11:33:00;99206.13;;;13.47;64.06
12215;BME280;6170;42.206;24.142;2023-04-09T11:35:27;99205.91;;;13.55;64.10
12215;BME280;6170;42.206;24.142;2023-04-09T11:37:54;99198.25;;;13.52;64.30
12215;BME280;6170;42.206;24.142;2023-04-09T11:40:23;99196.34;;;14.17;64.35
12215;BME280;6170;42.206;24.142;2023-04-09T11:42:51;99184.53;;;13.67;62.88
12215;BME280;6170;42.206;24.142;2023-04-09T11:45:20;99210.66;;;13.66;64.37
12215;BME280;6170;42.206;24.142;2023-04-09T11:47:48;99193.97;;;13.31;62.68
12215;BME280;6170;42.206;24.142;2023-04-09T11:50:16;99184.88;;;13.13;61.78
12215;BME280;6170;42.206;24.142;2023-04-09T11:52:45;99181.75;;;13.22;62.93
12215;BME280;6170;42.206;24.142;2023-04-09T11:55:22;99177.00;;;13.18;62.90
12215;BME280;6170;42.206;24.142;2023-04-09T11:57:51;99199.28;;;13.58;62.53
12215;BME280;6170;42.206;24.142;2023-04-09T12:00:19;99207.59;;;13.49;60.92
12215;BME280;6170;42.206;24.142;2023-04-09T12:02:57;99167.44;;;13.28;62.23
12215;BME280;6170;42.206;24.142;2023-04-09T12:05:27;99178.81;;;13.37;62.42
12215;BME280;6170;42.206;24.142;2023-04-09T12:07:57;99166.41;;;13.36;61.89
12215;BME280;6170;42.206;24.142;2023-04-09T12:10:26;99172.22;;;13.20;62.57
12215;BME280;6170;42.206;24.142;2023-04-09T12:12:54;99187.13;;;13.29;61.58
12215;BME280;6170;42.206;24.142;2023-04-09T12:15:30;99161.22;;;13.34;61.49
12215;BME280;6170;42.206;24.142;2023-04-09T12:17:57;99159.34;;;13.41;60.67
12215;BME280;6170;42.206;24.142;2023-04-09T12:20:28;99163.53;;;13.24;61.23
12215;BME280;6170;42.206;24.142;2023-04-09T12:22:56;99150.91;;;13.25;61.50
12215;BME280;6170;42.206;24.142;2023-04-09T12:25:24;99152.06;;;13.55;60.91
12215;BME280;6170;42.206;24.142;2023-04-09T12:27:51;99147.94;;;13.46;62.36
12215;BME280;6170;42.206;24.142;2023-04-09T12:30:18;99150.44;;;13.41;61.07
12215;BME280;6170;42.206;24.142;2023-04-09T12:32:45;99177.38;;;13.34;61.74
12215;BME280;6170;42.206;24.142;2023-04-09T12:35:12;99145.03;;;13.41;61.91
12215;BME280;6170;42.206;24.142;2023-04-09T12:37:41;99133.28;;;13.29;60.70
12215;BME280;6170;42.206;24.142;2023-04-09T12:40:09;99138.38;;;13.57;61.13
12215;BME280;6170;42.206;24.142;2023-04-09T12:42:38;99137.72;;;13.68;61.77
12215;BME280;6170;42.206;24.142;2023-04-09T12:45:07;99157.13;;;13.89;60.21
12215;BME280;6170;42.206;24.142;2023-04-09T12:47:34;99124.19;;;13.23;62.03
12215;BME280;6170;42.206;24.142;2023-04-09T12:50:01;99153.53;;;13.51;61.08
12215;BME280;6170;42.206;24.142;2023-04-09T12:52:28;99136.56;;;13.44;61.35
12215;BME280;6170;42.206;24.142;2023-04-09T12:54:57;99125.25;;;13.16;61.84
12215;BME280;6170;42.206;24.142;2023-04-09T12:57:24;99151.06;;;13.43;61.67
12215;BME280;6170;42.206;24.142;2023-04-09T12:59:52;99118.34;;;13.90;63.04
12215;BME280;6170;42.206;24.142;2023-04-09T13:02:19;99136.75;;;14.31;62.16
12215;BME280;6170;42.206;24.142;2023-04-09T13:04:47;99118.31;;;13.97;60.50
12215;BME280;6170;42.206;24.142;2023-04-09T13:07:14;99134.31;;;13.85;61.73
12215;BME280;6170;42.206;24.142;2023-04-09T13:09:44;99103.63;;;13.48;61.23
12215;BME280;6170;42.206;24.142;2023-04-09T13:12:13;99098.97;;;13.75;62.96
12215;BME280;6170;42.206;24.142;2023-04-09T13:14:41;99092.38;;;13.65;61.32